Airfield :
LOGIN :

Register | Disclaimer

   EN    FR    IT 

 










Legend :    VFR   Marginal VFR   IFR   Intensive IFR   Very Intensive IFR
Visi :
Ceiling :
>= 8 km
>= 3000ft
5 to 8 km
1000 to 3000 ft
1500m to 5 km
500 to 1000 ft
800 to 1500m
200 to 500 ft
< 800m
< 200 ft
Symbols :   Thunderstorms  Fog  Heavy snow  Heavy precipitations  Wind > 20 kt
SIGMETs :     Misc.  Thunderstorms  Icing  Turbulence  Mountain Waves  Volcanic Ashes







- Airport Elevation : 348 ft
- IATA code : STN
- Download approach charts


EGSS - London Stansted

CURRENT METAR :
  • 210250Z AUTO 11003KT 2800 -RA BKN032/// BKN042/// //////TCU 02/01 Q1005

EXPIRED METARs :
  • 210220Z AUTO VRB02KT 2600 BR OVC035 02/01 Q1005
  • 210150Z AUTO 09003KT 2000 BR BKN037 01/01 Q1005
  • 210120Z AUTO 12001KT 3600 BR SCT003 SCT027 01/01 Q1005
  • 210050Z 12003KT 4700 -DZ SCT003 BKN023 OVC031 02/01 Q1005 RERA
  • 210020Z AUTO 09002KT 4800 RA SCT025 BKN029 BKN034 02/01 Q1005

TAF AMD TAF EGSS
Valid from the 21 at 01:00 until the 22 at 06:00 UTC


210138Z 2101/2206 05006KT 4000 BR SCT003 SCT010
BECMG 2101/2103 BKN003
BECMG 2103/2106 14010KT
PROB30
TEMPO 2103/2108 1300 OVC001
BECMG 2108/2111 9999 NSW SCT020
PROB30
TEMPO 2108/2111 7000 SHRA
BECMG 2118/2121 05004KT
PROB30 2121/2201 7000 BKN008
BECMG 2201/2203 BKN005
TEMPO 2203/2206 2000 DZ BKN002
PROB30
TEMPO 2204/2206 0300 FG OVC000
ATIS : +44 1279 669 325
No reported NOTAMs for that airfield.
1 SIGMET reported for the London FIR (EGTT) :
 
Severe mountain waves
EGTT SIGMET 01 VALID 210100/210500 EGRR
EGTT LONDON FIR SEV MTW FCST WI N5500 W00200 - N5356 W00130 - N5345 W00530 - N5500 W00532 - N5500 W00530 - N5500 W00200 FL030/120 MOV N 05KT WKN=



MET'MAP, your aeronautical weather chart ! - Copyright ORBIFLY December 2007 - Disclaimer

ORBIFLY MET'MAP TEAM :

Programming & Development : Alexandra Zaïnal
Concept & Development : Baudouin d'Aumeries
Co-Development & Prog : Marc-Olivier Méhu
Technical & hardware support : Manuel Goepfert

Contact : metmap@orbifly.com




SOURCES & CREDITS :

   NOAA